sensor_id;sensor_type;location;lat;lon;timestamp;pressure;altitude;pressure_sealevel;temperature;humidity
51617;BME280;37697;52.588;13.394;2023-09-30T00:02:51;101495.90;;;16.30;100.00
51617;BME280;37697;52.588;13.394;2023-09-30T00:08:18;101502.77;;;16.26;100.00
51617;BME280;37697;52.588;13.394;2023-09-30T00:13:44;101518.61;;;16.20;100.00
51617;BME280;37697;52.588;13.394;2023-09-30T00:19:09;101534.59;;;16.09;100.00
51617;BME280;37697;52.588;13.394;2023-09-30T00:24:35;101551.12;;;15.92;100.00
51617;BME280;37697;52.588;13.394;2023-09-30T00:30:01;101559.08;;;15.81;99.93
51617;BME280;37697;52.588;13.394;2023-09-30T00:35:27;101566.41;;;15.70;98.94
51617;BME280;37697;52.588;13.394;2023-09-30T00:40:52;101577.92;;;15.53;97.93
51617;BME280;37697;52.588;13.394;2023-09-30T00:46:28;101575.71;;;15.35;96.66
51617;BME280;37697;52.588;13.394;2023-09-30T00:51:55;101587.78;;;15.21;95.75
51617;BME280;37697;52.588;13.394;2023-09-30T00:57:22;101594.52;;;15.03;94.91
51617;BME280;37697;52.588;13.394;2023-09-30T01:02:48;101597.20;;;14.90;94.40
51617;BME280;37697;52.588;13.394;2023-09-30T01:08:10;101595.44;;;14.75;93.94
51617;BME280;37697;52.588;13.394;2023-09-30T01:13:36;101597.64;;;14.62;93.81
51617;BME280;37697;52.588;13.394;2023-09-30T01:19:02;101606.09;;;14.49;93.65
51617;BME280;37697;52.588;13.394;2023-09-30T01:24:28;101611.41;;;14.38;93.61
51617;BME280;37697;52.588;13.394;2023-09-30T01:29:54;101623.27;;;14.30;93.88
51617;BME280;37697;52.588;13.394;2023-09-30T01:35:20;101629.48;;;14.22;93.84
51617;BME280;37697;52.588;13.394;2023-09-30T01:40:45;101635.18;;;14.18;94.04
51617;BME280;37697;52.588;13.394;2023-09-30T01:46:06;101647.89;;;14.08;94.40
51617;BME280;37697;52.588;13.394;2023-09-30T01:51:32;101650.30;;;14.03;94.81
51617;BME280;37697;52.588;13.394;2023-09-30T01:56:57;101662.08;;;13.95;94.75
51617;BME280;37697;52.588;13.394;2023-09-30T02:02:23;101666.20;;;13.84;94.95
51617;BME280;37697;52.588;13.394;2023-09-30T02:07:42;101674.27;;;13.75;95.35
51617;BME280;37697;52.588;13.394;2023-09-30T02:13:08;101681.56;;;13.69;95.98
51617;BME280;37697;52.588;13.394;2023-09-30T02:18:34;101686.67;;;13.64;95.84
51617;BME280;37697;52.588;13.394;2023-09-30T02:23:52;101695.26;;;13.57;96.25
51617;BME280;37697;52.588;13.394;2023-09-30T02:29:18;101687.10;;;13.47;96.23
51617;BME280;37697;52.588;13.394;2023-09-30T02:34:44;101691.89;;;13.37;96.63
51617;BME280;37697;52.588;13.394;2023-09-30T02:40:11;101699.11;;;13.31;97.18
51617;BME280;37697;52.588;13.394;2023-09-30T02:45:37;101711.54;;;13.23;97.47
51617;BME280;37697;52.588;13.394;2023-09-30T02:51:03;101719.39;;;13.20;97.75
51617;BME280;37697;52.588;13.394;2023-09-30T02:56:29;101728.86;;;13.13;97.91
51617;BME280;37697;52.588;13.394;2023-09-30T03:01:55;101735.02;;;13.08;98.34
51617;BME280;37697;52.588;13.394;2023-09-30T03:07:21;101733.55;;;13.02;98.72
51617;BME280;37697;52.588;13.394;2023-09-30T03:12:47;101739.09;;;12.97;98.80
51617;BME280;37697;52.588;13.394;2023-09-30T03:18:07;101742.29;;;12.88;98.99
51617;BME280;37697;52.588;13.394;2023-09-30T03:23:33;101746.38;;;12.79;99.62
51617;BME280;37697;52.588;13.394;2023-09-30T03:28:59;101755.88;;;12.69;99.94
51617;BME280;37697;52.588;13.394;2023-09-30T03:34:25;101759.02;;;12.66;100.00
51617;BME280;37697;52.588;13.394;2023-09-30T03:39:44;101755.45;;;12.63;100.00
51617;BME280;37697;52.588;13.394;2023-09-30T03:45:11;101747.27;;;12.59;100.00
51617;BME280;37697;52.588;13.394;2023-09-30T03:50:37;101747.48;;;12.54;100.00
51617;BME280;37697;52.588;13.394;2023-09-30T03:56:02;101759.20;;;12.48;100.00
51617;BME280;37697;52.588;13.394;2023-09-30T04:01:28;101764.54;;;12.43;100.00
51617;BME280;37697;52.588;13.394;2023-09-30T04:06:54;101767.14;;;12.38;100.00
51617;BME280;37697;52.588;13.394;2023-09-30T04:12:20;101768.79;;;12.33;100.00
51617;BME280;37697;52.588;13.394;2023-09-30T04:17:46;101773.02;;;12.29;100.00
51617;BME280;37697;52.588;13.394;2023-09-30T04:23:12;101783.67;;;12.30;100.00
51617;BME280;37697;52.588;13.394;2023-09-30T04:28:37;101791.33;;;12.25;100.00
51617;BME280;37697;52.588;13.394;2023-09-30T04:34:03;101799.05;;;12.19;100.00
51617;BME280;37697;52.588;13.394;2023-09-30T04:39:29;101803.23;;;12.17;100.00
51617;BME280;37697;52.588;13.394;2023-09-30T04:44:55;101792.80;;;12.14;100.00
51617;BME280;37697;52.588;13.394;2023-09-30T04:50:23;101789.66;;;12.12;100.00
51617;BME280;37697;52.588;13.394;2023-09-30T04:55:49;101788.80;;;12.09;100.00
51617;BME280;37697;52.588;13.394;2023-09-30T05:01:15;101784.98;;;12.05;100.00
51617;BME280;37697;52.588;13.394;2023-09-30T05:06:40;101800.13;;;12.00;100.00
51617;BME280;37697;52.588;13.394;2023-09-30T05:12:07;101811.05;;;11.96;100.00
51617;BME280;37697;52.588;13.394;2023-09-30T05:17:33;101820.02;;;11.93;100.00
51617;BME280;37697;52.588;13.394;2023-09-30T05:22:58;101824.03;;;11.90;100.00
51617;BME280;37697;52.588;13.394;2023-09-30T05:28:24;101817.30;;;11.89;100.00
51617;BME280;37697;52.588;13.394;2023-09-30T05:33:50;101829.67;;;11.88;100.00
51617;BME280;37697;52.588;13.394;2023-09-30T05:39:16;101835.74;;;11.87;100.00
51617;BME280;37697;52.588;13.394;2023-09-30T05:44:42;101845.67;;;11.89;100.00
51617;BME280;37697;52.588;13.394;2023-09-30T05:50:09;101848.29;;;11.92;100.00
51617;BME280;37697;52.588;13.394;2023-09-30T05:55:35;101853.89;;;11.97;100.00
51617;BME280;37697;52.588;13.394;2023-09-30T06:01:01;101866.05;;;12.03;100.00
51617;BME280;37697;52.588;13.394;2023-09-30T06:06:27;101877.43;;;12.11;100.00
51617;BME280;37697;52.588;13.394;2023-09-30T06:11:53;101879.48;;;12.24;100.00
51617;BME280;37697;52.588;13.394;2023-09-30T06:17:19;101875.31;;;12.38;100.00
51617;BME280;37697;52.588;13.394;2023-09-30T06:22:45;101884.76;;;12.53;100.00
51617;BME280;37697;52.588;13.394;2023-09-30T06:28:11;101884.25;;;12.67;100.00
51617;BME280;37697;52.588;13.394;2023-09-30T06:33:37;101895.64;;;12.73;100.00
51617;BME280;37697;52.588;13.394;2023-09-30T06:39:04;101903.45;;;12.77;100.00
51617;BME280;37697;52.588;13.394;2023-09-30T06:44:32;101915.78;;;12.77;100.00
51617;BME280;37697;52.588;13.394;2023-09-30T06:49:58;101913.46;;;12.77;100.00
51617;BME280;37697;52.588;13.394;2023-09-30T06:55:24;101919.87;;;12.90;100.00
51617;BME280;37697;52.588;13.394;2023-09-30T07:00:50;101918.20;;;13.13;100.00
51617;BME280;37697;52.588;13.394;2023-09-30T07:06:24;101918.59;;;13.38;100.00
51617;BME280;37697;52.588;13.394;2023-09-30T07:11:50;101927.54;;;13.53;100.00
51617;BME280;37697;52.588;13.394;2023-09-30T07:17:16;101943.56;;;13.62;100.00
51617;BME280;37697;52.588;13.394;2023-09-30T07:22:42;101953.62;;;13.73;100.00
51617;BME280;37697;52.588;13.394;2023-09-30T07:28:23;101961.09;;;13.82;100.00
51617;BME280;37697;52.588;13.394;2023-09-30T07:33:49;101965.91;;;13.87;100.00
51617;BME280;37697;52.588;13.394;2023-09-30T07:39:15;101965.00;;;13.97;100.00
51617;BME280;37697;52.588;13.394;2023-09-30T07:44:40;101966.21;;;14.01;100.00
51617;BME280;37697;52.588;13.394;2023-09-30T07:49:59;101980.33;;;14.04;100.00
51617;BME280;37697;52.588;13.394;2023-09-30T07:55:25;101981.21;;;14.02;100.00
51617;BME280;37697;52.588;13.394;2023-09-30T08:00:50;101990.67;;;14.08;100.00
51617;BME280;37697;52.588;13.394;2023-09-30T08:06:16;101994.67;;;14.07;100.00
51617;BME280;37697;52.588;13.394;2023-09-30T08:11:42;101999.22;;;14.11;100.00
51617;BME280;37697;52.588;13.394;2023-09-30T08:17:08;101997.27;;;14.16;100.00
51617;BME280;37697;52.588;13.394;2023-09-30T08:22:34;102000.91;;;14.27;100.00
51617;BME280;37697;52.588;13.394;2023-09-30T08:28:00;102012.35;;;14.41;100.00
51617;BME280;37697;52.588;13.394;2023-09-30T08:33:26;102011.42;;;14.60;100.00
51617;BME280;37697;52.588;13.394;2023-09-30T08:38:52;102008.02;;;14.80;100.00
51617;BME280;37697;52.588;13.394;2023-09-30T08:44:17;102015.48;;;15.07;100.00
51617;BME280;37697;52.588;13.394;2023-09-30T08:49:44;102017.25;;;15.24;100.00
51617;BME280;37697;52.588;13.394;2023-09-30T08:55:11;102014.67;;;15.35;100.00
51617;BME280;37697;52.588;13.394;2023-09-30T09:00:38;102012.73;;;15.48;99.98
51617;BME280;37697;52.588;13.394;2023-09-30T09:06:04;102014.56;;;15.59;99.25
51617;BME280;37697;52.588;13.394;2023-09-30T09:11:38;102005.59;;;15.83;99.25
51617;BME280;37697;52.588;13.394;2023-09-30T09:17:03;101999.58;;;16.15;98.66
51617;BME280;37697;52.588;13.394;2023-09-30T09:22:39;102002.25;;;16.46;98.01
51617;BME280;37697;52.588;13.394;2023-09-30T09:28:06;102006.30;;;16.70;96.41
51617;BME280;37697;52.588;13.394;2023-09-30T09:33:37;102008.04;;;16.90;95.47
51617;BME280;37697;52.588;13.394;2023-09-30T09:39:12;102009.83;;;17.10;94.15
51617;BME280;37697;52.588;13.394;2023-09-30T09:44:43;102008.38;;;17.25;93.90
51617;BME280;37697;52.588;13.394;2023-09-30T09:50:11;102006.61;;;17.50;92.95
51617;BME280;37697;52.588;13.394;2023-09-30T09:55:39;102007.94;;;17.67;91.37
51617;BME280;37697;52.588;13.394;2023-09-30T10:01:10;102011.48;;;17.59;89.34
51617;BME280;37697;52.588;13.394;2023-09-30T10:06:36;102013.67;;;17.52;89.42
51617;BME280;37697;52.588;13.394;2023-09-30T10:12:03;102013.80;;;17.50;88.16
51617;BME280;37697;52.588;13.394;2023-09-30T10:17:59;102009.62;;;17.62;87.83
51617;BME280;37697;52.588;13.394;2023-09-30T10:23:27;102002.45;;;17.84;87.30
51617;BME280;37697;52.588;13.394;2023-09-30T10:28:53;102006.25;;;17.88;86.31
51617;BME280;37697;52.588;13.394;2023-09-30T10:34:25;102011.34;;;17.80;85.51
51617;BME280;37697;52.588;13.394;2023-09-30T10:39:58;102012.52;;;17.80;85.35
51617;BME280;37697;52.588;13.394;2023-09-30T10:45:45;102011.86;;;18.10;85.17
51617;BME280;37697;52.588;13.394;2023-09-30T10:51:18;102023.43;;;18.36;84.63
51617;BME280;37697;52.588;13.394;2023-09-30T10:56:47;102026.66;;;18.47;83.36
51617;BME280;37697;52.588;13.394;2023-09-30T11:02:21;102022.00;;;18.44;81.92
51617;BME280;37697;52.588;13.394;2023-09-30T11:07:49;102016.10;;;18.44;81.30
51617;BME280;37697;52.588;13.394;2023-09-30T11:13:15;102014.23;;;18.28;81.01
51617;BME280;37697;52.588;13.394;2023-09-30T11:18:41;102014.16;;;18.10;80.57
51617;BME280;37697;52.588;13.394;2023-09-30T11:24:08;102012.94;;;18.08;80.51
51617;BME280;37697;52.588;13.394;2023-09-30T11:29:34;102004.93;;;18.37;80.21
51617;BME280;37697;52.588;13.394;2023-09-30T11:35:00;102000.05;;;18.60;80.43
51617;BME280;37697;52.588;13.394;2023-09-30T11:40:25;101999.40;;;18.91;78.44
51617;BME280;37697;52.588;13.394;2023-09-30T11:45:51;101992.11;;;19.15;76.52
51617;BME280;37697;52.588;13.394;2023-09-30T11:51:01;101986.80;;;19.37;75.78
51617;BME280;37697;52.588;13.394;2023-09-30T11:56:27;101973.42;;;19.53;73.99
51617;BME280;37697;52.588;13.394;2023-09-30T12:01:55;101975.95;;;19.61;73.65
51617;BME280;37697;52.588;13.394;2023-09-30T12:07:21;101975.52;;;19.72;72.54
51617;BME280;37697;52.588;13.394;2023-09-30T12:12:47;101973.93;;;19.80;71.99
51617;BME280;37697;52.588;13.394;2023-09-30T12:18:13;101967.30;;;20.00;71.19
51617;BME280;37697;52.588;13.394;2023-09-30T12:23:39;101968.19;;;20.05;69.95
51617;BME280;37697;52.588;13.394;2023-09-30T12:29:05;101958.88;;;20.05;69.64
51617;BME280;37697;52.588;13.394;2023-09-30T12:34:31;101954.70;;;19.98;68.78
51617;BME280;37697;52.588;13.394;2023-09-30T12:39:56;101953.24;;;19.98;68.03
51617;BME280;37697;52.588;13.394;2023-09-30T12:45:22;101943.13;;;19.94;67.80
51617;BME280;37697;52.588;13.394;2023-09-30T12:50:48;101941.79;;;19.97;67.18
51617;BME280;37697;52.588;13.394;2023-09-30T12:56:13;101941.96;;;19.95;66.13
51617;BME280;37697;52.588;13.394;2023-09-30T13:01:33;101944.54;;;19.85;66.34
51617;BME280;37697;52.588;13.394;2023-09-30T13:06:58;101950.45;;;19.93;66.94
51617;BME280;37697;52.588;13.394;2023-09-30T13:12:11;101944.61;;;19.97;66.39
51617;BME280;37697;52.588;13.394;2023-09-30T13:17:27;101946.68;;;20.03;66.75
51617;BME280;37697;52.588;13.394;2023-09-30T13:22:52;101949.56;;;19.97;66.32
51617;BME280;37697;52.588;13.394;2023-09-30T13:28:11;101944.27;;;19.89;65.50
51617;BME280;37697;52.588;13.394;2023-09-30T13:33:36;101953.83;;;19.69;64.87
51617;BME280;37697;52.588;13.394;2023-09-30T13:39:02;101950.63;;;19.59;64.96
51617;BME280;37697;52.588;13.394;2023-09-30T13:44:28;101954.21;;;19.49;63.35
51617;BME280;37697;52.588;13.394;2023-09-30T13:49:54;101956.90;;;19.33;63.16
51617;BME280;37697;52.588;13.394;2023-09-30T13:55:19;101956.17;;;19.24;62.86
51617;BME280;37697;52.588;13.394;2023-09-30T14:00:38;101961.02;;;19.20;62.63
51617;BME280;37697;52.588;13.394;2023-09-30T14:06:10;101958.90;;;19.13;62.66
51617;BME280;37697;52.588;13.394;2023-09-30T14:11:39;101957.98;;;19.08;62.41
51617;BME280;37697;52.588;13.394;2023-09-30T14:17:05;101951.21;;;18.98;61.35
51617;BME280;37697;52.588;13.394;2023-09-30T14:22:34;101952.50;;;18.93;61.66
51617;BME280;37697;52.588;13.394;2023-09-30T14:28:00;101942.75;;;18.87;61.78
51617;BME280;37697;52.588;13.394;2023-09-30T14:33:25;101934.25;;;18.75;62.03
51617;BME280;37697;52.588;13.394;2023-09-30T14:38:51;101938.83;;;18.67;61.66
51617;BME280;37697;52.588;13.394;2023-09-30T14:44:19;101931.57;;;18.56;61.75
51617;BME280;37697;52.588;13.394;2023-09-30T14:49:45;101928.72;;;18.50;62.38
51617;BME280;37697;52.588;13.394;2023-09-30T14:55:11;101919.77;;;18.42;62.40
51617;BME280;37697;52.588;13.394;2023-09-30T15:00:37;101912.28;;;18.30;62.31
51617;BME280;37697;52.588;13.394;2023-09-30T15:06:02;101907.63;;;18.22;62.42
51617;BME280;37697;52.588;13.394;2023-09-30T15:11:28;101912.47;;;18.10;62.51
51617;BME280;37697;52.588;13.394;2023-09-30T15:16:54;101911.35;;;18.05;63.34
51617;BME280;37697;52.588;13.394;2023-09-30T15:22:20;101903.63;;;17.96;62.96
51617;BME280;37697;52.588;13.394;2023-09-30T15:27:45;101897.97;;;17.88;63.38
51617;BME280;37697;52.588;13.394;2023-09-30T15:33:11;101895.11;;;17.78;63.30
51617;BME280;37697;52.588;13.394;2023-09-30T15:38:37;101898.09;;;17.66;62.95
51617;BME280;37697;52.588;13.394;2023-09-30T15:44:03;101912.96;;;17.56;62.87
51617;BME280;37697;52.588;13.394;2023-09-30T15:49:29;101921.16;;;17.48;62.95
51617;BME280;37697;52.588;13.394;2023-09-30T15:54:55;101920.14;;;17.37;62.81
51617;BME280;37697;52.588;13.394;2023-09-30T16:00:22;101918.63;;;17.28;63.19
51617;BME280;37697;52.588;13.394;2023-09-30T16:05:48;101926.00;;;17.20;63.78
51617;BME280;37697;52.588;13.394;2023-09-30T16:11:14;101932.06;;;17.10;64.15
51617;BME280;37697;52.588;13.394;2023-09-30T16:16:40;101940.75;;;16.97;64.57
51617;BME280;37697;52.588;13.394;2023-09-30T16:22:06;101943.35;;;16.89;65.24
51617;BME280;37697;52.588;13.394;2023-09-30T16:27:24;101943.48;;;16.75;65.74
51617;BME280;37697;52.588;13.394;2023-09-30T16:32:50;101945.29;;;16.61;66.75
51617;BME280;37697;52.588;13.394;2023-09-30T16:38:16;101938.79;;;16.49;67.42
51617;BME280;37697;52.588;13.394;2023-09-30T16:43:34;101938.61;;;16.33;67.79
51617;BME280;37697;52.588;13.394;2023-09-30T16:49:00;101944.26;;;16.11;68.28
51617;BME280;37697;52.588;13.394;2023-09-30T16:54:26;101940.54;;;15.96;69.02
51617;BME280;37697;52.588;13.394;2023-09-30T16:59:52;101934.38;;;15.79;69.54
51617;BME280;37697;52.588;13.394;2023-09-30T17:05:11;101925.05;;;15.64;70.08
51617;BME280;37697;52.588;13.394;2023-09-30T17:10:31;101935.39;;;15.47;70.47
51617;BME280;37697;52.588;13.394;2023-09-30T17:15:56;101940.20;;;15.28;71.11
51617;BME280;37697;52.588;13.394;2023-09-30T17:21:22;101946.33;;;15.11;71.76
51617;BME280;37697;52.588;13.394;2023-09-30T17:26:48;101956.01;;;14.94;72.01
51617;BME280;37697;52.588;13.394;2023-09-30T17:32:14;101960.34;;;14.77;72.30
51617;BME280;37697;52.588;13.394;2023-09-30T17:37:40;101961.48;;;14.63;72.74
51617;BME280;37697;52.588;13.394;2023-09-30T17:43:05;101964.20;;;14.47;73.06
51617;BME280;37697;52.588;13.394;2023-09-30T17:48:33;101962.88;;;14.31;73.49
51617;BME280;37697;52.588;13.394;2023-09-30T17:53:52;101966.95;;;14.18;73.96
51617;BME280;37697;52.588;13.394;2023-09-30T17:59:18;101965.13;;;14.05;74.54
51617;BME280;37697;52.588;13.394;2023-09-30T18:04:44;101965.46;;;13.92;74.91
51617;BME280;37697;52.588;13.394;2023-09-30T18:10:11;101970.66;;;13.78;75.25
51617;BME280;37697;52.588;13.394;2023-09-30T18:15:29;101976.64;;;13.64;75.90
51617;BME280;37697;52.588;13.394;2023-09-30T18:20:55;101971.77;;;13.48;76.42
51617;BME280;37697;52.588;13.394;2023-09-30T18:26:21;101971.30;;;13.34;76.87
51617;BME280;37697;52.588;13.394;2023-09-30T18:31:47;101971.80;;;13.21;77.30
51617;BME280;37697;52.588;13.394;2023-09-30T18:37:13;101977.86;;;13.11;77.59
51617;BME280;37697;52.588;13.394;2023-09-30T18:42:39;101983.43;;;13.00;78.05
51617;BME280;37697;52.588;13.394;2023-09-30T18:48:05;101985.63;;;12.90;78.51
51617;BME280;37697;52.588;13.394;2023-09-30T18:53:31;101981.96;;;12.77;78.91
51617;BME280;37697;52.588;13.394;2023-09-30T18:58:57;101976.79;;;12.66;79.43
51617;BME280;37697;52.588;13.394;2023-09-30T19:04:22;101977.17;;;12.56;79.60
51617;BME280;37697;52.588;13.394;2023-09-30T19:09:48;101975.66;;;12.45;80.01
51617;BME280;37697;52.588;13.394;2023-09-30T19:15:14;101979.66;;;12.30;80.18
51617;BME280;37697;52.588;13.394;2023-09-30T19:20:44;101982.85;;;12.09;80.64
51617;BME280;37697;52.588;13.394;2023-09-30T19:26:13;101984.26;;;11.94;81.49
51617;BME280;37697;52.588;13.394;2023-09-30T19:31:39;101981.72;;;11.93;82.15
51617;BME280;37697;52.588;13.394;2023-09-30T19:37:04;101984.80;;;11.91;82.51
51617;BME280;37697;52.588;13.394;2023-09-30T19:42:30;101990.21;;;11.88;82.89
51617;BME280;37697;52.588;13.394;2023-09-30T19:47:56;101995.73;;;11.85;83.13
51617;BME280;37697;52.588;13.394;2023-09-30T19:53:22;101994.20;;;11.81;83.39
51617;BME280;37697;52.588;13.394;2023-09-30T19:58:48;101990.75;;;11.77;83.75
51617;BME280;37697;52.588;13.394;2023-09-30T20:04:14;101993.91;;;11.73;84.08
51617;BME280;37697;52.588;13.394;2023-09-30T20:09:40;101991.42;;;11.68;84.34
51617;BME280;37697;52.588;13.394;2023-09-30T20:15:07;101993.20;;;11.65;84.62
51617;BME280;37697;52.588;13.394;2023-09-30T20:20:32;101990.79;;;11.63;84.95
51617;BME280;37697;52.588;13.394;2023-09-30T20:25:58;101996.91;;;11.60;85.14
51617;BME280;37697;52.588;13.394;2023-09-30T20:31:24;101993.34;;;11.57;85.50
51617;BME280;37697;52.588;13.394;2023-09-30T20:36:50;101988.38;;;11.54;85.81
51617;BME280;37697;52.588;13.394;2023-09-30T20:42:15;101992.08;;;11.51;85.95
51617;BME280;37697;52.588;13.394;2023-09-30T20:47:41;101994.73;;;11.47;86.23
51617;BME280;37697;52.588;13.394;2023-09-30T20:53:07;101993.52;;;11.45;86.77
51617;BME280;37697;52.588;13.394;2023-09-30T20:58:33;101990.55;;;11.42;87.25
51617;BME280;37697;52.588;13.394;2023-09-30T21:03:59;101989.69;;;11.38;87.34
51617;BME280;37697;52.588;13.394;2023-09-30T21:09:25;101984.34;;;11.35;87.59
51617;BME280;37697;52.588;13.394;2023-09-30T21:14:50;101982.39;;;11.33;88.05
51617;BME280;37697;52.588;13.394;2023-09-30T21:20:16;101983.07;;;11.30;88.30
51617;BME280;37697;52.588;13.394;2023-09-30T21:25:42;101979.83;;;11.26;88.43
51617;BME280;37697;52.588;13.394;2023-09-30T21:31:08;101989.86;;;11.22;88.95
51617;BME280;37697;52.588;13.394;2023-09-30T21:36:39;101986.50;;;11.19;89.22
51617;BME280;37697;52.588;13.394;2023-09-30T21:42:05;101982.92;;;11.16;89.51
51617;BME280;37697;52.588;13.394;2023-09-30T21:47:30;101985.02;;;11.14;89.75
51617;BME280;37697;52.588;13.394;2023-09-30T21:52:56;101978.69;;;11.10;89.86
51617;BME280;37697;52.588;13.394;2023-09-30T21:58:22;101982.37;;;11.07;90.09
51617;BME280;37697;52.588;13.394;2023-09-30T22:03:48;101994.39;;;11.06;90.39
51617;BME280;37697;52.588;13.394;2023-09-30T22:09:13;101996.42;;;11.06;90.83
51617;BME280;37697;52.588;13.394;2023-09-30T22:14:39;101988.27;;;11.07;91.27
51617;BME280;37697;52.588;13.394;2023-09-30T22:20:07;101978.02;;;11.08;91.69
51617;BME280;37697;52.588;13.394;2023-09-30T22:25:33;101973.45;;;11.12;92.06
51617;BME280;37697;52.588;13.394;2023-09-30T22:31:01;101980.66;;;11.16;92.60
51617;BME280;37697;52.588;13.394;2023-09-30T22:36:27;101982.81;;;11.18;92.68
51617;BME280;37697;52.588;13.394;2023-09-30T22:41:53;101983.46;;;11.21;93.02
51617;BME280;37697;52.588;13.394;2023-09-30T22:47:19;101978.55;;;11.21;93.44
51617;BME280;37697;52.588;13.394;2023-09-30T22:52:47;101980.10;;;11.24;93.84
51617;BME280;37697;52.588;13.394;2023-09-30T22:58:15;101972.70;;;11.27;94.12
51617;BME280;37697;52.588;13.394;2023-09-30T23:03:41;101975.17;;;11.31;94.38
51617;BME280;37697;52.588;13.394;2023-09-30T23:09:07;101975.89;;;11.34;94.50
51617;BME280;37697;52.588;13.394;2023-09-30T23:14:35;101972.52;;;11.37;94.74
51617;BME280;37697;52.588;13.394;2023-09-30T23:20:00;101972.18;;;11.43;95.09
51617;BME280;37697;52.588;13.394;2023-09-30T23:25:28;101967.44;;;11.47;95.43
51617;BME280;37697;52.588;13.394;2023-09-30T23:30:53;101964.60;;;11.52;95.59
51617;BME280;37697;52.588;13.394;2023-09-30T23:36:20;101969.51;;;11.55;95.79
51617;BME280;37697;52.588;13.394;2023-09-30T23:41:45;101969.38;;;11.58;96.04
51617;BME280;37697;52.588;13.394;2023-09-30T23:47:11;101984.79;;;11.60;96.21
51617;BME280;37697;52.588;13.394;2023-09-30T23:52:55;101974.02;;;11.62;96.36
51617;BME280;37697;52.588;13.394;2023-09-30T23:58:19;101962.19;;;11.65;96.71
